Cheyenne Wells, Colorado
Current Conditions -  °F | °C
As of 10:53 AM on Thursday 18 Dec 2014 (Local Time) from KITR Reporting Station
Few Clouds Few Clouds  
Wind Chill: 23°   Ceiling: Unl
Heat Index: 31°   Visibility: 10mi
Dew Point: 26°   Wind: 8mph
Humidity: 82%   Direction: 270°W
Pressure: 30.07"   Gusts: NA
Location:  38.82°N, 102.35°W
Report Text: KITR 181753Z AUTO 27007KT 10SM FEW060 M01/M03 A3007 RMK AO2 SLP208 I6001 T10061033 11006 21106 50005
Loading
Personal Weather Stations






























Interactive Weather Map New forecast layout! Learn more

10-Day Weather Forecast

Advertisements
Track Severe Weather on mobile